Saint Cloud, Florida
Current Conditions -  °F | °C
As of 7:50 PM on Monday 24 Nov 2014 (Local Time) from KISM Reporting Station
Clear Clear  
Wind Chill: 77°   Ceiling: Unl
Heat Index: 78°   Visibility: 10mi
Dew Point: 72°   Wind: 5mph
Humidity: 83%   Direction: 190°S
Pressure: 30"   Gusts: NA
Location:  28.25°N, 81.28°W
Report Text: KISM 250050Z 19004KT 10SM SKC 25/22 A3000
Loading
Personal Weather Stations






























Interactive Weather Map New forecast layout! Learn more

10-Day Weather Forecast

Advertisements
Track Severe Weather on mobile